NCAR-RAP Real-Time Weather Data

Output produced by METARs form (26 May 2022  07:49 UTC)
found at http://weather.rap.ucar.edu/surface/
 
KLEX 260654Z 17011G19KT 10SM OVC090 23/17 A2998 RMK AO2 SLP142 T02280167
KLEX 260554Z AUTO 18010G17KT 10SM FEW060 BKN120 23/17 A2999 RMK AO2 SLP145 T02280167 10267 20228 50000
KLEX 260454Z AUTO 18013G29KT 10SM FEW110 23/16 A3001 RMK AO2 PK WND 17029/0450 SLP150 T02330161 403000178
KLEX 260354Z AUTO 18013G22KT 10SM CLR 24/16 A3000 RMK AO2 PK WND 19027/0334 SLP149 T02390156
KLEX 260254Z AUTO 19015G25KT 10SM FEW055 BKN070 OVC120 25/16 A2999 RMK AO2 PK WND 18028/0242 SLP146 T02500156 53008
KLEX 260154Z 18011KT 10SM BKN090 BKN110 25/16 A2998 RMK AO2 SLP143 T02500156
KLEX 260054Z 19009KT 10SM SCT100 26/17 A2997 RMK AO2 SLP139 T02560167
KLEX 252354Z 18007KT 10SM BKN110 27/17 A2997 RMK AO2 SLP138 T02670167 10300 20267 55002
KLEX 252254Z 17015G21KT 10SM SCT055 SCT075 OVC110 28/17 A2996 RMK AO2 PK WND 19027/2229 SLP136 T02780172
KLEX 252154Z 16017G26KT 10SM SCT055 SCT100 29/18 A2996 RMK AO2 PK WND 17027/2131 SLP135 T02940183
KLEX 252054Z 16016G22KT 10SM FEW046 29/19 A2997 RMK AO2 SLP139 T02940189 58022
KLEX 251954Z 18016G27KT 10SM FEW049 29/19 A2999 RMK AO2 PK WND 17027/1937 SLP147 T02940189
KLEX 251854Z 19012G21KT 10SM FEW036 SCT043 BKN055 28/19 A3003 RMK AO2 SLP159 T02830194
KLEX 251754Z 16011G19KT 10SM FEW035 FEW044 29/20 A3004 RMK AO2 SLP163 T02890200 10294 20189 56014
KLEX 251654Z 16009G18KT 120V190 10SM CLR 28/20 A3005 RMK AO2 SLP167 T02780200
KLEX 251554Z 16011G20KT 10SM CLR 26/19 A3007 RMK AO2 SLP174 T02610194
KLEX 251454Z 15010KT 10SM CLR 24/19 A3008 RMK AO2 SLP179 T02440189 50000
KLEX 251354Z 14008KT 10SM CLR 22/18 A3009 RMK AO2 SLP184 T02220183
KLEX 251254Z 13006KT 10SM SCT120 20/18 A3009 RMK AO2 SLP183 T02000178
KLEX 251154Z 12006KT 10SM FEW100 19/17 A3008 RMK AO2 RAB19E32 SLP180 P0000 60004 70004 T01890172 10200 20178 51003
KLEX 251054Z 13007KT 10SM FEW075 SCT090 BKN120 19/17 A3008 RMK AO2 RAB0956E45 SLP179 P0002 T01890172
KLEX 250954Z 22008KT 10SM FEW070 SCT095 OVC110 19/17 A3008 RMK AO2 RAB16E46 SLP179 P0000 T01940167
KLEX 250854Z 15010KT 10SM FEW080 OVC110 19/16 A3007 RMK AO2 SLP176 60002 T01890161 55012
KLEX 250754Z 13008KT 10SM SCT120 18/16 A3007 RMK AO2 SLP174 T01830161
KLEX 250654Z 11011KT 10SM BKN095 OVC110 18/16 A3006 RMK AO2 RAB04E31 SLP172 P0002 T01780156
KLEX 250554Z 13007KT 10SM BKN085 OVC110 18/16 A3011 RMK AO2 RAB04E35 SLP189 P0000 60000 T01830156 10194 20178 56007
KLEX 250454Z 13009KT 10SM OVC100 18/15 A3012 RMK AO2 RAE0356 SLP192 P0000 T01830150 402280117
KLEX 250354Z 09009KT 10SM -RA SCT080 OVC110 18/14 A3011 RMK AO2 RAB43 SLP192 P0000 T01830144
KLEX 250254Z 11008KT 10SM FEW015 18/14 A3013 RMK AO2 SLP197 T01830144 51007
KLEX 250250Z 09009KT 10SM SCT015 18/14 A3013 RMK AO2
KLEX 250232Z 11008KT 10SM BKN015 18/14 A3013 RMK AO2 T01830144
KLEX 250207Z AUTO 11009KT 10SM OVC014 18/14 A3012 RMK AO2 T01830144
KLEX 250154Z 12012KT 10SM OVC015 18/14 A3011 RMK AO2 SLP191 T01830144
KLEX 250054Z 09009KT 10SM OVC015 18/14 A3011 RMK AO2 SLP191 T01830144
KLEX 242354Z 09008G17KT 10SM OVC016 19/14 A3011 RMK AO2 SLP193 T01940144 10228 20194 55001
KLEX 242254Z 09010KT 10SM SCT019 21/16 A3010 RMK AO2 SLP187 T02110156
KLEX 242154Z 10010KT 10SM FEW020 21/15 A3010 RMK AO2 SLP190 T02060150
KLEX 242054Z 07008KT 10SM FEW020 22/16 A3012 RMK AO2 SLP193 T02220156 58008
KLEX 242025Z 08007KT 10SM SCT022 22/16 A3012 RMK AO2 T02170156
KLEX 241954Z 07007KT 10SM BKN021 22/16 A3012 RMK AO2 SLP195 T02220156
KLEX 241854Z 04005KT 10SM OVC020 21/15 A3014 RMK AO2 SLP202 T02110150
KLEX 241754Z 05008KT 10SM OVC018 21/15 A3014 RMK AO2 SLP203 T02060150 10206 20139 58011
KLEX 241654Z 08005KT 10SM OVC016 19/14 A3016 RMK AO2 SLP210 T01940139
KLEX 241641Z 07007KT 10SM OVC016 19/14 A3017 RMK AO2 T01890139
KLEX 241554Z 10007KT 10SM OVC013 17/13 A3017 RMK AO2 SLP213 T01720128
KLEX 241454Z 10007KT 10SM OVC012 16/12 A3017 RMK AO2 SLP214 T01610122 51009
KLEX 241354Z 05008KT 10SM OVC011 16/12 A3017 RMK AO2 SLP213 T01560117
KLEX 241254Z 06007KT 10SM OVC013 15/12 A3016 RMK AO2 SLP209 T01500117
KLEX 241154Z 05006KT 10SM OVC013 14/12 A3015 RMK AO2 SLP205 70004 T01390117 10139 20117 53010
KLEX 241054Z 04004KT 8SM OVC012 13/11 A3014 RMK AO2 SLP202 T01330111
KLEX 240954Z 03005KT 9SM OVC014 12/11 A3012 RMK AO2 SLP197 T01220111
KLEX 240947Z 05005KT 9SM OVC014 12/11 A3011 RMK AO2 T01220111
KLEX 240854Z 01005KT 9SM OVC016 12/11 A3011 RMK AO2 SLP196 T01220111 55001
KLEX 240754Z 01004KT 5SM BR BKN019 12/11 A3011 RMK AO2 SLP194 T01170106